createdAt,value
2024-04-18T00:06:46.950Z,5.13
2024-04-18T00:21:43.275Z,5.1
2024-04-18T00:36:39.766Z,5.19
2024-04-18T00:51:35.121Z,5.15
2024-04-18T01:06:31.157Z,4.97
2024-04-18T01:21:27.145Z,5.03
2024-04-18T01:36:23.238Z,5
2024-04-18T01:51:19.606Z,5.28
2024-04-18T02:06:16.462Z,5.33
2024-04-18T02:21:12.727Z,5.37
2024-04-18T02:36:08.847Z,5.59
2024-04-18T02:51:05.261Z,5.5
2024-04-18T03:06:01.080Z,5.64
2024-04-18T03:20:57.575Z,5.69
2024-04-18T03:35:53.619Z,5.73
2024-04-18T03:50:49.999Z,5.62
2024-04-18T04:05:46.231Z,5.74
2024-04-18T04:20:42.740Z,5.54
2024-04-18T04:35:39.117Z,5.72
2024-04-18T04:50:35.492Z,5.89
2024-04-18T05:05:31.894Z,5.87
2024-04-18T05:20:28.181Z,5.93
2024-04-18T05:35:24.396Z,5.81
2024-04-18T05:50:20.973Z,5.98
2024-04-18T06:05:17.344Z,6.02
2024-04-18T06:20:13.676Z,5.98
2024-04-18T06:35:10.198Z,6.07
2024-04-18T06:50:06.595Z,6.51
2024-04-18T07:05:03.401Z,6.69
2024-04-18T07:19:59.577Z,6.43
2024-04-18T07:34:55.744Z,6.65
2024-04-18T07:49:52.404Z,7.17
2024-04-18T08:04:52.678Z,7.95
2024-04-18T08:19:46.195Z,8.31
2024-04-18T08:34:44.418Z,8.97
2024-04-18T08:49:39.985Z,8.92
2024-04-18T09:04:36.643Z,8.86
2024-04-18T09:19:32.798Z,9.68
2024-04-18T09:34:29.103Z,11.17
2024-04-18T09:49:26.156Z,9.57
2024-04-18T10:04:21.849Z,9.16
2024-04-18T10:19:17.983Z,9.82
2024-04-18T10:34:14.391Z,10.03
2024-04-18T10:49:10.808Z,10.05
2024-04-18T11:04:07.556Z,11.84
2024-04-18T11:19:04.288Z,10.58
2024-04-18T11:34:00.984Z,11.51
2024-04-18T12:03:54.532Z,10.78
2024-04-18T12:18:49.767Z,10.68
2024-04-18T12:33:45.708Z,11.61
2024-04-18T12:48:43.016Z,11.81
2024-04-18T13:03:38.831Z,12.17
2024-04-18T13:18:35.735Z,12.18
2024-04-18T13:33:32.133Z,12.68
2024-04-18T13:48:28.804Z,13.17
2024-04-18T14:03:25.581Z,12.72
2024-04-18T14:18:21.100Z,13.78
2024-04-18T14:33:17.525Z,13.23
2024-04-18T14:48:13.753Z,14.18
2024-04-18T15:03:09.985Z,11.93
2024-04-18T15:18:05.828Z,13.28
2024-04-18T15:33:02.108Z,13.15
2024-04-18T15:47:58.424Z,11.84
2024-04-18T16:02:55.412Z,11.93
2024-04-18T16:17:49.820Z,11.63
2024-04-18T16:32:45.658Z,12.96
2024-04-18T16:47:42.593Z,12.18
2024-04-18T17:02:38.481Z,11.72
2024-04-18T17:17:34.042Z,12.43
2024-04-18T17:32:30.445Z,11.52
2024-04-18T17:47:26.091Z,11.02
2024-04-18T18:02:21.727Z,10.64
2024-04-18T18:17:17.277Z,10.44
2024-04-18T18:32:13.387Z,10.12
2024-04-18T18:47:09.603Z,9.98
2024-04-18T19:02:05.758Z,9.86
2024-04-18T19:17:02.173Z,9.9
2024-04-18T19:31:58.011Z,9.35
2024-04-18T19:46:53.838Z,9.14
2024-04-18T20:01:49.683Z,9.07
2024-04-18T20:16:45.951Z,9.08
2024-04-18T20:31:42.253Z,9.12
2024-04-18T20:46:38.147Z,8.94
2024-04-18T21:01:33.867Z,8.88
2024-04-18T21:16:29.857Z,8.74
2024-04-18T21:31:25.844Z,8.75
2024-04-18T21:46:22.222Z,8.69
2024-04-18T22:01:18.312Z,8.43
2024-04-18T22:16:14.198Z,8.34
2024-04-18T22:31:10.048Z,8.13
2024-04-18T22:46:05.891Z,8.01
2024-04-18T23:01:02.409Z,7.89
2024-04-18T23:15:57.915Z,7.74
2024-04-18T23:30:54.387Z,7.85
2024-04-18T23:45:50.321Z,7.78
